Time;durP1;ratioP1;P1;durP2;ratioP2;P2;SDS_P1;SDS_P2;PMS_P1;PMS_P2;Temp;Humidity;BMP_temperature;BMP_pressure;BME280_temperature;BME280_humidity;BME280_pressure;Samples;Min_cycle;Max_cycle;Signal;HPM_P1;HPM_P2
2024/04/01 00:01:51;;;;;;;0.47;0.47;;;14.60;1.00;;;;;;5155323;27;20019;-68
2024/04/01 00:04:17;;;;;;;0.00;0.00;;;14.70;1.00;;;;;;5144853;27;20023;-68
2024/04/01 00:06:43;;;;;;;0.00;0.00;;;14.70;1.00;;;;;;5156603;27;20052;-68
2024/04/01 00:09:09;;;;;;;0.00;0.00;;;14.70;1.00;;;;;;5154830;27;20073;-68
2024/04/01 00:11:34;;;;;;;0.00;0.00;;;14.70;1.00;;;;;;5156565;27;20409;-68
2024/04/01 00:14:00;;;;;;;0.03;0.03;;;14.70;1.00;;;;;;5154273;27;20023;-68
2024/04/01 00:16:26;;;;;;;0.00;0.00;;;14.70;1.00;;;;;;5151271;27;20469;-68
2024/04/01 00:18:51;;;;;;;0.20;0.20;;;14.60;1.00;;;;;;5141975;27;20047;-69
2024/04/01 00:21:17;;;;;;;0.00;0.00;;;14.40;1.00;;;;;;5151004;27;20384;-68
2024/04/01 00:23:43;;;;;;;2.75;1.45;;;14.50;1.00;;;;;;5149588;27;20046;-68
2024/04/01 00:26:09;;;;;;;0.00;0.00;;;14.50;1.00;;;;;;5148737;27;20033;-68
2024/04/01 00:28:35;;;;;;;0.00;0.00;;;14.40;1.00;;;;;;5156060;27;20034;-68
2024/04/01 00:31:00;;;;;;;0.00;0.00;;;14.50;1.00;;;;;;5155269;27;20031;-68
2024/04/01 00:33:26;;;;;;;0.00;0.00;;;14.40;1.00;;;;;;5154822;27;20050;-68
2024/04/01 00:35:52;;;;;;;0.00;0.00;;;14.50;1.00;;;;;;5151078;27;20091;-68
2024/04/01 00:38:17;;;;;;;0.00;0.00;;;14.50;1.00;;;;;;5155173;27;20395;-68
2024/04/01 00:40:43;;;;;;;0.68;0.22;;;14.40;1.00;;;;;;5155917;27;20464;-68
2024/04/01 00:43:10;;;;;;;0.00;0.00;;;14.40;1.00;;;;;;5152692;27;20034;-68
2024/04/01 00:45:45;;;;;;;0.20;0.20;;;14.40;1.00;;;;;;5152654;27;20093;-68
2024/04/01 00:48:13;;;;;;;0.00;0.00;;;14.40;1.00;;;;;;5152734;27;20027;-68
2024/04/01 00:50:42;;;;;;;0.00;0.00;;;14.30;1.00;;;;;;5154515;27;20080;-68
2024/04/01 00:53:10;;;;;;;0.00;0.00;;;14.40;1.00;;;;;;5155127;27;20055;-67
2024/04/01 00:55:39;;;;;;;0.00;0.00;;;14.30;1.00;;;;;;5135972;27;20052;-68
2024/04/01 00:58:05;;;;;;;0.55;0.55;;;14.30;1.00;;;;;;5153854;27;20049;-68
2024/04/01 01:00:31;;;;;;;0.00;0.00;;;14.30;1.00;;;;;;5136400;27;20026;-68
2024/04/01 01:02:59;;;;;;;4.25;1.42;;;14.20;1.00;;;;;;5154121;27;20026;-68
2024/04/01 01:05:25;;;;;;;0.03;0.03;;;14.30;1.00;;;;;;5154428;27;20041;-68
2024/04/01 01:07:50;;;;;;;0.08;0.08;;;14.40;1.00;;;;;;5154737;27;20428;-68
2024/04/01 01:10:16;;;;;;;0.00;0.00;;;14.30;1.00;;;;;;5154379;27;20054;-69
2024/04/01 01:12:42;;;;;;;0.00;0.00;;;14.30;1.00;;;;;;5144746;27;20047;-69
2024/04/01 01:15:11;;;;;;;0.00;0.00;;;14.30;1.00;;;;;;5154242;27;20621;-69
2024/04/01 01:17:37;;;;;;;4.05;0.77;;;14.30;1.00;;;;;;5154810;27;20137;-69
2024/04/01 01:20:03;;;;;;;0.00;0.00;;;14.40;1.00;;;;;;5145507;27;20495;-68
2024/04/01 01:22:36;;;;;;;1.38;1.27;;;14.40;1.00;;;;;;5153528;27;20499;-69
2024/04/01 01:25:06;;;;;;;0.10;0.10;;;14.40;1.00;;;;;;5148674;27;20071;-69
2024/04/01 01:27:34;;;;;;;0.00;0.00;;;14.40;1.00;;;;;;5145192;27;20058;-69
2024/04/01 01:30:00;;;;;;;0.00;0.00;;;14.30;1.00;;;;;;5135705;27;20384;-69
2024/04/01 01:32:26;;;;;;;0.00;0.00;;;14.30;1.00;;;;;;5149141;27;20023;-68
2024/04/01 01:34:53;;;;;;;0.00;0.00;;;14.30;1.00;;;;;;5134455;27;20023;-68
2024/04/01 01:37:19;;;;;;;0.52;0.52;;;14.40;1.00;;;;;;5148632;27;20033;-69
2024/04/01 01:39:45;;;;;;;4.57;1.02;;;14.20;1.00;;;;;;5148891;27;20038;-69
2024/04/01 01:42:10;;;;;;;0.00;0.00;;;14.20;1.00;;;;;;5135007;27;20027;-69
2024/04/01 01:44:36;;;;;;;0.00;0.00;;;14.30;1.00;;;;;;5129916;27;20564;-69
2024/04/01 01:47:11;;;;;;;0.63;0.25;;;14.30;1.00;;;;;;5144088;27;20081;-68
2024/04/01 01:49:36;;;;;;;1.08;1.00;;;14.20;1.00;;;;;;5153290;27;20022;-67
2024/04/01 01:52:02;;;;;;;0.00;0.00;;;14.10;1.00;;;;;;5145241;27;20417;-69
2024/04/01 01:54:28;;;;;;;1.75;0.88;;;14.20;1.00;;;;;;5148522;27;20617;-68
2024/04/01 01:56:53;;;;;;;0.17;0.13;;;14.20;1.00;;;;;;5134035;27;20023;-69
2024/04/01 01:59:19;;;;;;;0.17;0.17;;;14.20;1.00;;;;;;5135857;27;20534;-68
2024/04/01 02:01:44;;;;;;;0.00;0.00;;;14.20;1.00;;;;;;5142991;27;20023;-68
2024/04/01 02:04:10;;;;;;;0.00;0.00;;;14.30;1.00;;;;;;5154439;27;20027;-68
2024/04/01 02:06:36;;;;;;;0.55;0.55;;;14.30;1.00;;;;;;5154455;27;20035;-68
2024/04/01 02:09:01;;;;;;;0.00;0.00;;;14.30;1.00;;;;;;5154276;27;20480;-68
2024/04/01 02:11:27;;;;;;;4.57;2.65;;;14.20;1.00;;;;;;5153481;27;20023;-68
2024/04/01 02:13:52;;;;;;;0.00;0.00;;;14.30;1.00;;;;;;5135552;27;20027;-68
2024/04/01 02:16:18;;;;;;;1.35;1.27;;;14.20;1.00;;;;;;5154255;27;20027;-68
2024/04/01 02:18:45;;;;;;;0.20;0.20;;;14.20;1.00;;;;;;5139674;27;20026;-68
2024/04/01 02:21:10;;;;;;;0.00;0.00;;;14.30;1.00;;;;;;5135126;27;20379;-68
2024/04/01 02:23:37;;;;;;;0.00;0.00;;;14.40;1.00;;;;;;5154027;27;20026;-68
2024/04/01 02:26:04;;;;;;;0.00;0.00;;;14.40;1.00;;;;;;5135306;27;20023;-67
2024/04/01 02:28:32;;;;;;;0.00;0.00;;;14.30;1.00;;;;;;5154279;27;20035;-68
2024/04/01 02:31:01;;;;;;;2.17;0.32;;;14.20;1.00;;;;;;5133780;27;20027;-68
2024/04/01 02:33:27;;;;;;;0.88;0.88;;;14.30;1.00;;;;;;5137557;27;20127;-68
2024/04/01 02:35:53;;;;;;;0.10;0.10;;;14.30;1.00;;;;;;5152524;27;20023;-68
2024/04/01 02:38:20;;;;;;;0.00;0.00;;;14.30;1.00;;;;;;5129959;27;20056;-69
2024/04/01 02:40:46;;;;;;;0.00;0.00;;;14.20;1.00;;;;;;5157039;27;20110;-68
2024/04/01 02:43:12;;;;;;;0.00;0.00;;;14.20;1.00;;;;;;5147326;27;20066;-69
2024/04/01 02:45:39;;;;;;;0.95;0.70;;;;;;;;;;5157980;27;20019;-69
2024/04/01 02:48:05;;;;;;;0.00;0.00;;;;;;;;;;5157981;27;20030;-68
2024/04/01 02:50:31;;;;;;;3.65;1.95;;;;;;;;;;5148745;27;20330;-69
2024/04/01 02:53:00;;;;;;;0.00;0.00;;;;;;;;;;5153469;27;20074;-68
2024/04/01 02:55:26;;;;;;;0.00;0.00;;;;;;;;;;5157075;27;20061;-69
2024/04/01 02:57:52;;;;;;;0.00;0.00;;;;;;;;;;5157838;27;20034;-69
2024/04/01 03:00:18;;;;;;;1.95;0.57;;;;;;;;;;5157799;27;20031;-69
2024/04/01 03:02:45;;;;;;;0.00;0.00;;;;;;;;;;5149717;27;20019;-68
2024/04/01 03:05:12;;;;;;;0.00;0.00;;;;;;;;;;5157039;27;20057;-69
2024/04/01 03:07:39;;;;;;;0.00;0.00;;;;;;;;;;5157756;27;20484;-68
2024/04/01 03:10:05;;;;;;;0.00;0.00;;;;;;;;;;5139064;27;20034;-69
2024/04/01 03:12:31;;;;;;;0.00;0.00;;;;;;;;;;5157798;27;20433;-68
2024/04/01 03:14:57;;;;;;;0.00;0.00;;;;;;;;;;5128512;27;20092;-68
2024/04/01 03:17:24;;;;;;;0.05;0.05;;;;;;;;;;5157754;27;20027;-68
2024/04/01 03:19:50;;;;;;;7.78;1.55;;;;;;;;;;5157401;27;20031;-69
2024/04/01 03:22:16;;;;;;;0.00;0.00;;;;;;;;;;5137961;27;20026;-69
2024/04/01 03:24:43;;;;;;;0.00;0.00;;;;;;;;;;5149570;27;20411;-69
2024/04/01 03:27:10;;;;;;;0.52;0.40;;;;;;;;;;5154241;27;20476;-70
2024/04/01 03:29:36;;;;;;;0.00;0.00;;;;;;;;;;5148444;27;20039;-69
2024/04/01 03:32:02;;;;;;;0.00;0.00;;;;;;;;;;5136497;27;20015;-70
2024/04/01 03:34:28;;;;;;;0.00;0.00;;;;;;;;;;5142739;27;20576;-69
2024/04/01 03:37:03;;;;;;;0.10;0.10;;;;;;;;;;5157210;27;20022;-70
2024/04/01 03:39:30;;;;;;;0.00;0.00;;;;;;;;;;5141964;27;20054;-69
2024/04/01 03:41:56;;;;;;;0.47;0.47;;;;;;;;;;5156989;27;20015;-69
2024/04/01 03:44:22;;;;;;;0.00;0.00;;;;;;;;;;5156168;27;20167;-69
2024/04/01 03:46:48;;;;;;;0.00;0.00;;;;;;;;;;5138274;27;20472;-70
2024/04/01 03:49:16;;;;;;;0.00;0.00;;;;;;;;;;5155700;27;20037;-69
2024/04/01 03:51:42;;;;;;;0.43;0.43;;;;;;;;;;5145062;27;20030;-69
2024/04/01 03:54:08;;;;;;;0.00;0.00;;;;;;;;;;5156971;27;20023;-69
2024/04/01 03:56:35;;;;;;;0.00;0.00;;;;;;;;;;5156747;27;20110;-69
2024/04/01 03:59:01;;;;;;;3.30;0.68;;;;;;;;;;5138368;27;20384;-69
2024/04/01 04:01:29;;;;;;;0.00;0.00;;;;;;;;;;5151859;27;20120;-69
2024/04/01 04:03:55;;;;;;;0.32;0.32;;;;;;;;;;5150523;27;20023;-69
2024/04/01 04:06:21;;;;;;;0.00;0.00;;;;;;;;;;5153589;27;20025;-69
2024/04/01 04:08:47;;;;;;;0.00;0.00;;;;;;;;;;5156672;27;20107;-69
2024/04/01 04:11:13;;;;;;;0.00;0.00;;;;;;;;;;5156430;27;20023;-69
2024/04/01 04:13:40;;;;;;;0.00;0.00;;;;;;;;;;5153377;27;20388;-69
2024/04/01 04:16:06;;;;;;;0.00;0.00;;;;;;;;;;5131268;27;20019;-69
2024/04/01 04:18:32;;;;;;;0.20;0.20;;;;;;;;;;5155599;27;20464;-69
2024/04/01 04:20:58;;;;;;;0.00;0.00;;;;;;;;;;5156483;27;20042;-69
2024/04/01 04:23:25;;;;;;;0.00;0.00;;;;;;;;;;5156502;27;20023;-69
2024/04/01 04:25:51;;;;;;;0.00;0.00;;;;;;;;;;5156295;27;20022;-69
2024/04/01 04:28:17;;;;;;;0.00;0.00;;;;;;;;;;5150258;27;20395;-69
2024/04/01 04:30:44;;;;;;;0.00;0.00;;;;;;;;;;5147722;27;20019;-69
2024/04/01 04:33:10;;;;;;;0.00;0.00;;;;;;;;;;5155862;27;20051;-70
2024/04/01 04:35:36;;;;;;;0.00;0.00;;;;;;;;;;5156040;27;20365;-70
2024/04/01 04:38:02;;;;;;;0.00;0.00;;;;;;;;;;5153400;27;20380;-70
2024/04/01 04:40:28;;;;;;;0.30;0.30;;;;;;;;;;5155825;27;20116;-70
2024/04/01 04:42:54;;;;;;;0.20;0.20;;;;;;;;;;5155841;27;20022;-70
2024/04/01 04:45:22;;;;;;;0.00;0.00;;;;;;;;;;5155199;27;20426;-69
2024/04/01 04:47:48;;;;;;;1.30;0.25;;;;;;;;;;5155091;27;20380;-70
2024/04/01 04:50:14;;;;;;;0.00;0.00;;;;;;;;;;5155878;27;20090;-69
2024/04/01 04:52:40;;;;;;;0.00;0.00;;;;;;;;;;5155029;27;20412;-69
2024/04/01 04:55:06;;;;;;;0.00;0.00;;;;;;;;;;5152873;27;20058;-69
2024/04/01 04:57:33;;;;;;;0.00;0.00;;;;;;;;;;5155531;27;20030;-69
2024/04/01 04:59:59;;;;;;;0.28;0.15;;;;;;;;;;5155488;27;20488;-70
2024/04/01 05:02:25;;;;;;;0.00;0.00;;;;;;;;;;5155453;27;20079;-70
2024/04/01 05:04:51;;;;;;;0.17;0.17;;;;;;;;;;5152365;27;20048;-70
2024/04/01 05:07:17;;;;;;;0.00;0.00;;;;;;;;;;5152818;27;20418;-70
2024/04/01 05:09:43;;;;;;;0.00;0.00;;;;;;;;;;5155341;27;20031;-70
2024/04/01 05:12:09;;;;;;;0.00;0.00;;;;;;;;;;5155342;27;20098;-69
2024/04/01 05:14:35;;;;;;;0.35;0.35;;;;;;;;;;5155516;27;20018;-70
2024/04/01 05:17:02;;;;;;;0.00;0.00;;;;;;;;;;5152503;27;20015;-69
2024/04/01 05:19:28;;;;;;;0.00;0.00;;;;;;;;;;5151486;27;20115;-68
2024/04/01 05:21:54;;;;;;;0.00;0.00;;;;;;;;;;5122734;27;20043;-68
2024/04/01 05:24:19;;;;;;;0.00;0.00;;;;;;;;;;5153730;27;20415;-69
2024/04/01 05:26:45;;;;;;;0.00;0.00;;;;;;;;;;5149676;27;20025;-69
2024/04/01 05:29:12;;;;;;;0.20;0.20;;;;;;;;;;5153442;27;20091;-69
2024/04/01 05:31:38;;;;;;;0.00;0.00;;;;;;;;;;5123638;27;20023;-69
2024/04/01 05:34:04;;;;;;;0.00;0.00;;;;;;;;;;5149473;27;20084;-69
2024/04/01 05:36:31;;;;;;;0.52;0.52;;;;;;;;;;5150717;27;20051;-69
2024/04/01 05:38:57;;;;;;;0.00;0.00;;;;;;;;;;5154624;27;20038;-69
2024/04/01 05:41:23;;;;;;;0.00;0.00;;;;;;;;;;5128520;27;20035;-69
2024/04/01 05:43:50;;;;;;;0.00;0.00;;;;;;;;;;5147246;27;20130;-69
2024/04/01 05:46:16;;;;;;;0.10;0.10;;;;;;;;;;5154598;27;20068;-69
2024/04/01 05:48:43;;;;;;;0.00;0.00;;;;;;;;;;5154613;27;20034;-69
2024/04/01 05:51:09;;;;;;;0.30;0.30;;;;;;;;;;5151134;27;20544;-69
2024/04/01 05:53:36;;;;;;;0.00;0.00;;;;;;;;;;5152710;27;20054;-69
2024/04/01 05:56:03;;;;;;;0.00;0.00;;;;;;;;;;5153433;27;20023;-69
2024/04/01 05:58:29;;;;;;;6.00;0.75;;;;;;;;;;5136296;27;20027;-69
2024/04/01 06:00:56;;;;;;;0.00;0.00;;;;;;;;;;5147488;27;20027;-68
2024/04/01 06:03:22;;;;;;;0.00;0.00;;;;;;;;;;5154317;27;20333;-68
2024/04/01 06:05:48;;;;;;;0.00;0.00;;;;;;;;;;5153405;27;20045;-69
2024/04/01 06:08:14;;;;;;;0.00;0.00;;;;;;;;;;5153714;27;20425;-69
2024/04/01 06:10:40;;;;;;;0.00;0.00;;;;;;;;;;5149246;27;20106;-68
2024/04/01 06:13:07;;;;;;;0.00;0.00;;;;;;;;;;5145527;27;20044;-69
2024/04/01 06:15:33;;;;;;;0.00;0.00;;;;;;;;;;5153598;27;20019;-68
2024/04/01 06:17:59;;;;;;;0.00;0.00;;;;;;;;;;5152035;27;20041;-69
2024/04/01 06:20:25;;;;;;;0.00;0.00;;;;;;;;;;5154224;27;20492;-68
2024/04/01 06:22:51;;;;;;;0.00;0.00;;;;;;;;;;5140351;27;20022;-69
2024/04/01 06:25:18;;;;;;;0.00;0.00;;;;;;;;;;5154410;27;20023;-69
2024/04/01 06:27:44;;;;;;;0.00;0.00;;;;;;;;;;5152041;27;20026;-70
2024/04/01 06:30:10;;;;;;;0.00;0.00;;;;;;;;;;5154241;27;20068;-70
2024/04/01 06:32:36;;;;;;;0.00;0.00;;;;;;;;;;5126879;27;20400;-69
2024/04/01 06:35:02;;;;;;;0.00;0.00;;;;;;;;;;5153421;27;20031;-69
2024/04/01 06:37:28;;;;;;;0.00;0.00;;;;;;;;;;5154153;27;20026;-70
2024/04/01 06:39:54;;;;;;;0.10;0.10;;;;;;;;;;5152172;27;20047;-70
2024/04/01 06:42:21;;;;;;;0.00;0.00;;;;;;;;;;5147647;27;20053;-70
2024/04/01 06:44:50;;;;;;;0.00;0.00;;;;;;;;;;5153933;27;20138;-69
2024/04/01 06:47:17;;;;;;;0.00;0.00;;;;;;;;;;5152122;27;20030;-70
2024/04/01 06:49:43;;;;;;;0.00;0.00;;;;;;;;;;5154145;27;20027;-70
2024/04/01 06:52:09;;;;;;;0.00;0.00;;;;;;;;;;5140070;27;20075;-69
2024/04/01 06:54:35;;;;;;;0.00;0.00;;;;;;;;;;5149263;27;20024;-68
2024/04/01 06:57:02;;;;;;;0.00;0.00;;;;;;;;;;5148281;27;20484;-69
2024/04/01 06:59:28;;;;;;;0.00;0.00;;;;;;;;;;5151742;27;20015;-69
2024/04/01 07:01:54;;;;;;;0.00;0.00;;;;;;;;;;5148549;27;20031;-69
2024/04/01 07:04:20;;;;;;;0.00;0.00;;;;;;;;;;5143973;27;20110;-69
2024/04/01 07:06:46;;;;;;;0.00;0.00;;;;;;;;;;5153581;27;20479;-69
2024/04/01 07:09:12;;;;;;;0.60;0.60;;;;;;;;;;5142874;27;20050;-69
2024/04/01 07:11:38;;;;;;;0.00;0.00;;;;;;;;;;5141915;27;20101;-69
2024/04/01 07:14:04;;;;;;;0.00;0.00;;;;;;;;;;5148447;27;20027;-69
2024/04/01 07:16:30;;;;;;;0.00;0.00;;;;;;;;;;5152867;27;20060;-69
2024/04/01 07:18:56;;;;;;;0.00;0.00;;;;;;;;;;5138348;27;20022;-69
2024/04/01 07:21:22;;;;;;;0.00;0.00;;;;;;;;;;5157410;27;20030;-69
2024/04/01 07:23:49;;;;;;;0.00;0.00;;;;;;;;;;5153128;27;20042;-69
2024/04/01 07:26:15;;;;;;;0.00;0.00;;;;;;;;;;5151449;27;20019;-68
2024/04/01 07:28:41;;;;;;;0.00;0.00;;;;;;;;;;5157156;27;20053;-68
2024/04/01 07:31:07;;;;;;;0.00;0.00;;;;;;;;;;5154011;27;20027;-68
2024/04/01 07:33:33;;;;;;;0.00;0.00;;;;;;;;;;5156950;27;20044;-68
2024/04/01 07:35:59;;;;;;;0.03;0.03;;;;;;;;;;5155939;27;20101;-69
2024/04/01 07:38:25;;;;;;;0.00;0.00;;;;;;;;;;5146034;27;20051;-69
2024/04/01 07:40:51;;;;;;;0.00;0.00;;;;;;;;;;5156044;27;20015;-69
2024/04/01 07:43:17;;;;;;;0.00;0.00;;;;;;;;;;5156555;27;20037;-69
2024/04/01 07:45:43;;;;;;;0.00;0.00;;;;;;;;;;5155447;27;20027;-68
2024/04/01 07:48:10;;;;;;;0.00;0.00;;;;;;;;;;5147880;27;20035;-69
2024/04/01 07:50:36;;;;;;;0.00;0.00;;;;;;;;;;5151625;27;20457;-69
2024/04/01 07:53:02;;;;;;;0.00;0.00;;;;;;;;;;5152215;27;20038;-69
2024/04/01 07:55:28;;;;;;;0.00;0.00;;;;;;;;;;5155443;27;20027;-68
2024/04/01 07:57:53;;;;;;;0.00;0.00;;;;;;;;;;5156827;27;20910;-68
2024/04/01 08:00:41;;;;;;;0.10;0.10;;;;;;;;;;5156828;27;20027;-68
2024/04/01 08:03:07;;;;;;;0.00;0.00;;;;;;;;;;5155238;27;20038;-68
2024/04/01 08:05:33;;;;;;;0.00;0.00;;;;;;;;;;5156272;27;20031;-68
2024/04/01 08:08:00;;;;;;;0.00;0.00;;;;;;;;;;5156352;27;20034;-69
2024/04/01 08:10:26;;;;;;;0.00;0.00;;;;;;;;;;5154833;27;20027;-69
2024/04/01 08:12:52;;;;;;;0.00;0.00;;;;;;;;;;5151122;27;20053;-69
2024/04/01 08:15:18;;;;;;;0.00;0.00;;;;;;;;;;5156140;27;20030;-69
2024/04/01 08:17:45;;;;;;;0.00;0.00;;;;;;;;;;5150853;27;20034;-68
2024/04/01 08:20:11;;;;;;;0.00;0.00;;;;;;;;;;5153107;27;20015;-69
2024/04/01 08:22:37;;;;;;;0.00;0.00;;;;;;;;;;5150991;27;20027;-67
2024/04/01 08:25:03;;;;;;;0.00;0.00;;;;;;;;;;5136860;27;20081;-68
2024/04/01 08:27:29;;;;;;;0.00;0.00;;;;;;;;;;5148463;27;20043;-67
2024/04/01 08:29:55;;;;;;;0.00;0.00;;;;;;;;;;5148289;27;20035;-68
2024/04/01 08:32:21;;;;;;;0.00;0.00;;;;;;;;;;5150073;27;20027;-67
2024/04/01 08:34:47;;;;;;;0.00;0.00;;;;;;;;;;5139726;27;20042;-67
2024/04/01 08:37:13;;;;;;;0.00;0.00;;;;;;;;;;5157417;27;20340;-66
2024/04/01 08:39:39;;;;;;;0.00;0.00;;;;;;;;;;5154821;27;20035;-72
2024/04/01 08:42:07;;;;;;;0.00;0.00;;;;;;;;;;5158819;27;20022;-70
2024/04/01 08:44:33;;;;;;;0.00;0.00;;;;;;;;;;5156157;27;20023;-62
2024/04/01 08:47:00;;;;;;;0.00;0.00;;;;;;;;;;5153060;27;20027;-67
2024/04/01 08:49:45;;;;;;;0.00;0.00;;;;;;;;;;5155522;27;20057;-62
2024/04/01 08:52:15;;;;;;;0.00;0.00;;;;;;;;;;5156038;27;20102;-62
2024/04/01 08:54:41;;;;;;;0.00;0.00;;;;;;;;;;5155375;27;20022;-62
2024/04/01 08:57:07;;;;;;;0.00;0.00;;;;;;;;;;5153775;27;20495;-62
2024/04/01 08:59:34;;;;;;;0.00;0.00;;;;;;;;;;5154152;27;20391;-62
2024/04/01 09:02:01;;;;;;;0.00;0.00;;;;;;;;;;5141083;27;20015;-63
2024/04/01 09:04:28;;;;;;;0.00;0.00;;;;;;;;;;5148520;27;20027;-62
2024/04/01 09:06:54;;;;;;;0.00;0.00;;;;;;;;;;5153552;27;20015;-62
2024/04/01 09:09:20;;;;;;;0.00;0.00;;;;;;;;;;5155368;27;20057;-63
2024/04/01 09:11:46;;;;;;;0.00;0.00;;;;;;;;;;5155249;27;20118;-62
2024/04/01 09:14:13;;;;;;;0.00;0.00;;;;;;;;;;5136725;27;20025;-62
2024/04/01 09:16:39;;;;;;;0.08;0.08;;;;;;;;;;5133748;27;20397;-63
2024/04/01 09:19:08;;;;;;;0.00;0.00;;;;;;;;;;5152732;27;20403;-63
2024/04/01 09:21:35;;;;;;;0.22;0.22;;;;;;;;;;5148237;27;20033;-63
2024/04/01 09:24:01;;;;;;;0.00;0.00;;;;;;;;;;5153055;27;20522;-62
2024/04/01 09:26:31;;;;;;;0.00;0.00;;;;;;;;;;5136336;27;20026;-63
2024/04/01 09:28:57;;;;;;;0.75;0.75;;;;;;;;;;5142717;27;20067;-63
2024/04/01 09:31:23;;;;;;;0.00;0.00;;;;;;;;;;5154789;27;20023;-63
2024/04/01 09:33:50;;;;;;;0.00;0.00;;;;;;;;;;5146430;27;20051;-63
2024/04/01 09:36:16;;;;;;;0.00;0.00;;;;;;;;;;5134271;27;20051;-67
2024/04/01 09:38:43;;;;;;;0.00;0.00;;;;;;;;;;5149918;27;20105;-67
2024/04/01 09:41:09;;;;;;;0.52;0.52;;;;;;;;;;5141160;27;20027;-66
2024/04/01 09:43:35;;;;;;;0.28;0.22;;;;;;;;;;5151976;27;20094;-66
2024/04/01 09:46:01;;;;;;;0.00;0.00;;;;;;;;;;5154862;27;20065;-67
2024/04/01 09:48:28;;;;;;;0.00;0.00;;;;;;;;;;5147019;27;20436;-66
2024/04/01 09:50:55;;;;;;;0.00;0.00;;;;;;;;;;5132280;27;20019;-67
2024/04/01 09:53:21;;;;;;;0.00;0.00;;;;;;;;;;5149549;27;20030;-68
2024/04/01 09:55:47;;;;;;;0.00;0.00;;;;;;;;;;5148825;27;20037;-68
2024/04/01 09:58:32;;;;;;;0.00;0.00;;;;;;;;;;5149470;27;20030;-68
2024/04/01 10:01:04;;;;;;;0.00;0.00;;;;;;;;;;5149832;27;20158;-67
2024/04/01 10:03:49;;;;;;;0.00;0.00;;;;;;;;;;5150895;27;20383;-68
2024/04/01 10:06:34;;;;;;;0.00;0.00;;;;;;;;;;5130450;27;20046;-68
2024/04/01 10:09:14;;;;;;;0.20;0.20;;;;;;;;;;5150156;27;20107;-67
2024/04/01 10:11:59;;;;;;;0.00;0.00;;;;;;;;;;5144944;27;20022;-68
2024/04/01 10:14:40;;;;;;;0.00;0.00;;;;;;;;;;5148305;27;20027;-68
2024/04/01 10:17:25;;;;;;;0.00;0.00;;;;;;;;;;5141115;27;20067;-68
2024/04/01 10:19:51;;;;;;;;;;;;;;;;;;5123899;27;20045;-67
2024/04/01 10:22:35;;;;;;;0.00;0.00;;;;;;;;;;5148037;27;20275;-68
2024/04/01 10:25:20;;;;;;;0.00;0.00;;;;;;;;;;5133506;27;20030;-68
2024/04/01 10:28:04;;;;;;;0.00;0.00;;;;;;;;;;5147038;27;20054;-68
2024/04/01 10:30:49;;;;;;;0.00;0.00;;;;;;;;;;5140115;27;20061;-67
2024/04/01 10:33:26;;;;;;;0.00;0.00;;;;;;;;;;5144656;27;20043;-66
2024/04/01 10:35:58;;;;;;;0.00;0.00;;;;;;;;;;5135214;27;20084;-67
2024/04/01 10:38:43;;;;;;;0.00;0.00;;;;;;;;;;5140631;27;20510;-66
2024/04/01 10:41:27;;;;;;;0.00;0.00;;;;;;;;;;5135342;27;20087;-66
2024/04/01 10:43:53;;;;;;;;;;;;;;;;;;5153160;27;20084;-66
2024/04/01 10:46:39;;;;;;;0.00;0.00;;;;;;;;;;5153838;27;20416;-67
2024/04/01 10:49:12;;;;;;;0.00;0.00;;;;;;;;;;5153624;27;20449;-66
2024/04/01 10:52:01;;;;;;;0.00;0.00;;;;;;;;;;5154115;27;20026;-66
2024/04/01 10:54:50;;;;;;;0.00;0.00;;;;;;;;;;5156545;27;20041;-66
2024/04/01 10:57:28;;;;;;;0.00;0.00;;;;;;;;;;5106873;27;20068;-66
2024/04/01 10:59:54;;;;;;;0.00;0.00;;;;;;;;;;5156128;27;20033;-67
2024/04/01 11:02:46;;;;;;;0.00;0.00;;;;;;;;;;5153288;27;20023;-66
2024/04/01 11:05:27;;;;;;;0.00;0.00;;;;;;;;;;5157636;27;20497;-65
2024/04/01 11:08:16;;;;;;;0.00;0.00;;;;;;;;;;5157773;27;20035;-66
2024/04/01 11:10:46;;;;;;;0.00;0.00;;;;;;;;;;5118194;27;20026;-65
2024/04/01 11:13:16;;;;;;;0.00;0.00;;;;;;;;;;5153026;27;20037;-66
2024/04/01 11:15:42;;;;;;;0.00;0.00;;;;;;;;;;5152873;27;20027;-66
2024/04/01 11:18:20;;;;;;;0.00;0.00;;;;;;;;;;5156037;27;20372;-66
2024/04/01 11:20:54;;;;;;;0.00;0.00;;;;;;;;;;5142779;27;20532;-66
2024/04/01 11:23:25;;;;;;;0.00;0.00;;;;;;;;;;5157595;27;20037;-67
2024/04/01 11:25:54;;;;;;;0.00;0.00;;;;;;;;;;5154350;27;20068;-67
2024/04/01 11:28:39;;;;;;;0.93;0.20;;;;;;;;;;5157604;27;20030;-67
2024/04/01 11:31:11;;;;;;;;;;;14.20;1.00;;;;;;5125476;27;20029;-67
2024/04/01 11:33:51;;;;;;;0.00;0.00;;;18.40;99.90;;;;;;5157231;27;19919;-67
2024/04/01 11:36:26;;;;;;;0.00;0.00;;;18.50;99.90;;;;;;5156324;27;20034;-66
2024/04/01 11:39:08;;;;;;;0.00;0.00;;;18.50;99.90;;;;;;5156566;27;20026;-66
2024/04/01 11:48:19;;;;;;;1.30;0.90;;;18.40;99.90;;;;;;5155482;27;20046;-66
2024/04/01 11:50:52;;;;;;;2.00;0.88;;;18.50;1.00;;;;;;5156165;27;20025;-66
2024/04/01 11:53:19;;;;;;;2.97;1.07;;;18.30;99.90;;;;;;5156136;27;20035;-66
2024/04/01 11:55:58;;;;;;;2.58;1.83;;;18.30;1.00;;;;;;5156935;27;20252;-66
2024/04/01 11:58:25;;;;;;;5.53;1.80;;;18.30;99.90;;;;;;5153249;27;20062;-68
2024/04/01 12:00:55;;;;;;;6.38;1.77;;;18.50;1.00;;;;;;5137945;27;20030;-67
2024/04/01 12:03:23;;;;;;;3.85;1.20;;;18.70;99.90;;;;;;5144246;27;20023;-67
2024/04/01 12:05:53;;;;;;;1.30;0.70;;;18.80;99.90;;;;;;5154322;27;20436;-67
2024/04/01 12:08:25;;;;;;;2.58;0.90;;;18.90;99.90;;;;;;5155973;27;20046;-68
2024/04/01 12:10:52;;;;;;;2.10;0.88;;;19.00;1.00;;;;;;5140931;27;20076;-67
2024/04/01 12:13:26;;;;;;;5.43;1.25;;;19.00;99.90;;;;;;5141150;27;20034;-68
2024/04/01 12:15:53;;;;;;;1.73;1.00;;;;;;;;;;5136834;27;20053;-68
2024/04/01 12:18:20;;;;;;;3.08;1.17;;;;;;;;;;5156607;27;20111;-68
2024/04/01 12:20:51;;;;;;;3.35;2.17;;;;;;;;;;5147861;27;20096;-68
2024/04/01 12:23:19;;;;;;;2.83;1.05;;;;;;;;;;5156152;27;20050;-68
2024/04/01 12:25:46;;;;;;;2.72;0.93;;;;;;;;;;5156169;27;20070;-68
2024/04/01 12:28:12;;;;;;;2.25;0.70;;;;;;;;;;5156015;27;20083;-66
2024/04/01 12:30:38;;;;;;;3.22;0.70;;;;;;;;;;5155296;27;20050;-66
2024/04/01 12:33:08;;;;;;;2.53;0.70;;;;;;;;;;5155999;27;20035;-66
2024/04/01 12:35:38;;;;;;;1.90;0.85;;;;;;;;;;5137298;27;20421;-66
2024/04/01 12:38:05;;;;;;;2.40;0.90;;;;;;;;;;5155980;27;20035;-67
2024/04/01 12:40:51;;;;;;;1.13;0.60;;;;;;;;;;5146727;27;20019;-67
2024/04/01 12:43:18;;;;;;;1.20;0.85;;;;;;;;;;5155738;27;20047;-66
2024/04/01 12:45:45;;;;;;;1.85;0.95;;;;;;;;;;5155795;27;20022;-67
2024/04/01 12:48:13;;;;;;;2.38;0.68;;;;;;;;;;5155735;27;20031;-67
2024/04/01 12:50:42;;;;;;;1.65;0.40;;;;;;;;;;5126762;27;20449;-67
2024/04/01 12:53:28;;;;;;;1.67;0.85;;;;;;;;;;5155728;27;20026;-67
2024/04/01 12:55:56;;;;;;;2.97;0.82;;;;;;;;;;5126882;27;20039;-67
2024/04/01 12:58:28;;;;;;;3.35;1.20;;;;;;;;;;5155559;27;20102;-66
2024/04/01 13:01:02;;;;;;;1.92;1.05;;;;;;;;;;5135206;27;20117;-67
2024/04/01 13:03:33;;;;;;;0.70;0.50;;;;;;;;;;5136346;27;20344;-67
2024/04/01 13:06:18;;;;;;;2.83;0.95;;;;;;;;;;5155270;27;20022;-68
2024/04/01 13:08:44;;;;;;;;;;;;;;;;;;5150494;27;20125;-67
2024/04/01 13:11:18;;;;;;;3.33;1.00;;;;;;;;;;5155221;27;20353;-67
2024/04/01 13:13:50;;;;;;;4.00;1.70;;;;;;;;;;5155277;27;20030;-67
2024/04/01 13:16:27;;;;;;;4.05;2.03;;;;;;;;;;5154752;27;20376;-67
2024/04/01 13:18:56;;;;;;;3.15;1.52;;;;;;;;;;5153469;27;20394;-68
2024/04/01 13:21:52;;;;;;;2.47;1.10;;;;;;;;;;5154046;27;20067;-68
2024/04/01 13:24:21;;;;;;;1.60;0.80;;;;;;;;;;5106722;27;20436;-68
2024/04/01 13:27:01;;;;;;;2.53;1.50;;;;;;;;;;5154919;27;20068;-68
2024/04/01 13:29:35;;;;;;;3.17;1.17;;;;;;;;;;5145183;27;20039;-66
2024/04/01 13:32:24;;;;;;;2.55;1.13;;;;;;;;;;5150098;27;20019;-67
2024/04/01 13:35:08;;;;;;;1.45;1.35;;;;;;;;;;5154416;27;20392;-67
2024/04/01 13:37:43;;;;;;;3.40;1.17;;;;;;;;;;5154779;27;20015;-67
2024/04/01 13:40:17;;;;;;;1.65;1.40;;;;;;;;;;5147982;27;20029;-67
2024/04/01 13:42:58;;;;;;;1.60;1.15;;;;;;;;;;5154186;27;20019;-67
2024/04/01 13:45:24;;;;;;;3.38;1.40;;;;;;;;;;5153002;27;20026;-66
2024/04/01 13:47:50;;;;;;;1.88;0.98;;;;;;;;;;5154455;27;20026;-67
2024/04/01 13:50:15;;;;;;;1.85;1.75;;;;;;;;;;5154667;27;20022;-67
2024/04/01 13:52:44;;;;;;;2.28;1.40;;;;;;;;;;5152129;27;20459;-67
2024/04/01 13:55:16;;;;;;;2.63;1.25;;;;;;;;;;5154224;27;20048;-67
2024/04/01 13:57:42;;;;;;;5.70;1.45;;;;;;;;;;5151087;27;20031;-67
2024/04/01 14:00:14;;;;;;;2.60;1.70;;;;;;;;;;5154494;27;20062;-67
2024/04/01 14:02:49;;;;;;;2.22;1.20;;;;;;;;;;5145758;27;20478;-67
2024/04/01 14:05:21;;;;;;;3.08;1.52;;;;;;;;;;5151174;27;20023;-67
2024/04/01 14:08:06;;;;;;;3.03;1.50;;;;;;;;;;5154513;27;20041;-67
2024/04/01 14:10:50;;;;;;;2.85;1.80;;;;;;;;;;5139633;27;20019;-67
2024/04/01 14:13:34;;;;;;;2.50;1.58;;;;;;;;;;5150178;27;20031;-67
2024/04/01 14:16:08;;;;;;;2.72;1.63;;;;;;;;;;5140548;27;20502;-67
2024/04/01 14:18:34;;;;;;;2.50;1.20;;;;;;;;;;5141043;27;20019;-67
2024/04/01 14:21:00;;;;;;;1.20;0.85;;;;;;;;;;5154254;27;20544;-66
2024/04/01 14:23:26;;;;;;;3.22;1.65;;;;;;;;;;5153483;27;20057;-66
2024/04/01 14:25:54;;;;;;;1.85;1.20;;;;;;;;;;5153855;27;20033;-66
2024/04/01 14:28:20;;;;;;;3.42;1.08;;;;;;;;;;5143638;27;20042;-66
2024/04/01 14:30:47;;;;;;;2.75;1.33;;;;;;;;;;5150087;27;20456;-66
2024/04/01 14:33:17;;;;;;;3.08;1.20;;;;;;;;;;5147228;27;20050;-66